sensor_id;sensor_type;location;lat;lon;timestamp;P1;durP1;ratioP1;P2;durP2;ratioP2
63900;SDS011;50538;53.482;10.294;2022-08-19T00:04:34;9.63;;;3.20;;
63900;SDS011;50538;53.482;10.294;2022-08-19T00:14:36;8.80;;;3.95;;
63900;SDS011;50538;53.482;10.294;2022-08-19T00:24:38;9.50;;;4.15;;
63900;SDS011;50538;53.482;10.294;2022-08-19T00:34:38;9.82;;;4.57;;
63900;SDS011;50538;53.482;10.294;2022-08-19T00:44:38;10.27;;;4.80;;
63900;SDS011;50538;53.482;10.294;2022-08-19T00:54:39;14.35;;;5.85;;
63900;SDS011;50538;53.482;10.294;2022-08-19T01:04:40;10.82;;;5.65;;
63900;SDS011;50538;53.482;10.294;2022-08-19T01:14:41;13.50;;;5.85;;
63900;SDS011;50538;53.482;10.294;2022-08-19T01:24:41;16.33;;;6.38;;
63900;SDS011;50538;53.482;10.294;2022-08-19T01:34:42;15.73;;;6.70;;
63900;SDS011;50538;53.482;10.294;2022-08-19T01:44:46;20.50;;;9.23;;
63900;SDS011;50538;53.482;10.294;2022-08-19T01:54:47;19.52;;;8.07;;
63900;SDS011;50538;53.482;10.294;2022-08-19T02:04:47;19.60;;;8.57;;
63900;SDS011;50538;53.482;10.294;2022-08-19T02:14:47;17.98;;;7.65;;
63900;SDS011;50538;53.482;10.294;2022-08-19T02:24:48;18.70;;;7.28;;
63900;SDS011;50538;53.482;10.294;2022-08-19T02:34:48;15.05;;;6.40;;
63900;SDS011;50538;53.482;10.294;2022-08-19T02:44:49;19.60;;;6.68;;
63900;SDS011;50538;53.482;10.294;2022-08-19T02:54:50;16.77;;;7.32;;
63900;SDS011;50538;53.482;10.294;2022-08-19T03:04:50;17.60;;;6.85;;
63900;SDS011;50538;53.482;10.294;2022-08-19T03:14:50;15.15;;;6.80;;
63900;SDS011;50538;53.482;10.294;2022-08-19T03:24:51;16.88;;;6.85;;
63900;SDS011;50538;53.482;10.294;2022-08-19T03:34:56;14.57;;;6.63;;
63900;SDS011;50538;53.482;10.294;2022-08-19T03:44:56;17.17;;;6.35;;
63900;SDS011;50538;53.482;10.294;2022-08-19T03:54:58;10.23;;;5.10;;
63900;SDS011;50538;53.482;10.294;2022-08-19T04:04:59;15.75;;;5.72;;
63900;SDS011;50538;53.482;10.294;2022-08-19T04:14:59;16.65;;;5.75;;
63900;SDS011;50538;53.482;10.294;2022-08-19T04:25:00;11.75;;;5.18;;
63900;SDS011;50538;53.482;10.294;2022-08-19T04:35:00;16.27;;;6.30;;
63900;SDS011;50538;53.482;10.294;2022-08-19T04:45:00;19.40;;;7.60;;
63900;SDS011;50538;53.482;10.294;2022-08-19T04:55:02;13.50;;;5.70;;
63900;SDS011;50538;53.482;10.294;2022-08-19T05:05:06;15.95;;;6.72;;
63900;SDS011;50538;53.482;10.294;2022-08-19T05:15:07;13.43;;;5.45;;
63900;SDS011;50538;53.482;10.294;2022-08-19T05:25:09;15.63;;;5.72;;
63900;SDS011;50538;53.482;10.294;2022-08-19T05:35:12;12.68;;;5.75;;
63900;SDS011;50538;53.482;10.294;2022-08-19T05:45:12;20.45;;;6.20;;
63900;SDS011;50538;53.482;10.294;2022-08-19T05:55:13;14.75;;;6.10;;
63900;SDS011;50538;53.482;10.294;2022-08-19T06:05:13;15.07;;;6.25;;
63900;SDS011;50538;53.482;10.294;2022-08-19T06:15:14;13.07;;;5.38;;
63900;SDS011;50538;53.482;10.294;2022-08-19T06:25:15;20.20;;;6.35;;
63900;SDS011;50538;53.482;10.294;2022-08-19T06:35:16;15.80;;;6.32;;
63900;SDS011;50538;53.482;10.294;2022-08-19T06:45:17;17.55;;;7.13;;
63900;SDS011;50538;53.482;10.294;2022-08-19T06:55:18;21.05;;;7.18;;
63900;SDS011;50538;53.482;10.294;2022-08-19T07:05:18;26.45;;;8.07;;
63900;SDS011;50538;53.482;10.294;2022-08-19T07:15:19;21.60;;;7.65;;
63900;SDS011;50538;53.482;10.294;2022-08-19T07:25:21;18.00;;;6.80;;
63900;SDS011;50538;53.482;10.294;2022-08-19T07:35:22;20.85;;;7.70;;
63900;SDS011;50538;53.482;10.294;2022-08-19T07:45:23;16.95;;;6.95;;
63900;SDS011;50538;53.482;10.294;2022-08-19T07:55:25;16.23;;;5.13;;
63900;SDS011;50538;53.482;10.294;2022-08-19T08:05:26;17.77;;;6.35;;
63900;SDS011;50538;53.482;10.294;2022-08-19T08:15:45;24.30;;;8.80;;
63900;SDS011;50538;53.482;10.294;2022-08-19T08:25:45;21.55;;;8.07;;
63900;SDS011;50538;53.482;10.294;2022-08-19T08:35:47;30.13;;;10.05;;
63900;SDS011;50538;53.482;10.294;2022-08-19T08:45:52;25.98;;;9.93;;
63900;SDS011;50538;53.482;10.294;2022-08-19T08:55:57;19.60;;;7.78;;
63900;SDS011;50538;53.482;10.294;2022-08-19T09:06:10;21.80;;;8.70;;
63900;SDS011;50538;53.482;10.294;2022-08-19T09:16:28;24.80;;;9.82;;
63900;SDS011;50538;53.482;10.294;2022-08-19T09:26:30;26.92;;;8.82;;
63900;SDS011;50538;53.482;10.294;2022-08-19T09:36:32;25.00;;;8.50;;
63900;SDS011;50538;53.482;10.294;2022-08-19T09:46:33;18.60;;;7.55;;
63900;SDS011;50538;53.482;10.294;2022-08-19T09:56:33;21.30;;;7.97;;
63900;SDS011;50538;53.482;10.294;2022-08-19T10:06:34;15.50;;;6.57;;
63900;SDS011;50538;53.482;10.294;2022-08-19T10:16:37;16.80;;;6.95;;
63900;SDS011;50538;53.482;10.294;2022-08-19T10:26:39;22.98;;;7.55;;
63900;SDS011;50538;53.482;10.294;2022-08-19T10:36:47;17.48;;;6.93;;
63900;SDS011;50538;53.482;10.294;2022-08-19T10:46:47;15.90;;;6.00;;
63900;SDS011;50538;53.482;10.294;2022-08-19T10:56:48;16.90;;;7.97;;
63900;SDS011;50538;53.482;10.294;2022-08-19T11:06:51;20.48;;;7.47;;
63900;SDS011;50538;53.482;10.294;2022-08-19T11:16:51;17.02;;;7.20;;
63900;SDS011;50538;53.482;10.294;2022-08-19T11:27:00;19.80;;;7.05;;
63900;SDS011;50538;53.482;10.294;2022-08-19T11:37:05;16.58;;;7.68;;
63900;SDS011;50538;53.482;10.294;2022-08-19T11:47:06;21.17;;;8.02;;
63900;SDS011;50538;53.482;10.294;2022-08-19T11:57:07;16.80;;;7.60;;
63900;SDS011;50538;53.482;10.294;2022-08-19T12:07:07;23.30;;;7.60;;
63900;SDS011;50538;53.482;10.294;2022-08-19T12:17:08;16.90;;;6.88;;
63900;SDS011;50538;53.482;10.294;2022-08-19T12:27:09;24.17;;;8.77;;
63900;SDS011;50538;53.482;10.294;2022-08-19T12:37:09;19.73;;;7.97;;
63900;SDS011;50538;53.482;10.294;2022-08-19T12:47:11;19.80;;;8.43;;
63900;SDS011;50538;53.482;10.294;2022-08-19T12:57:13;15.23;;;6.93;;
63900;SDS011;50538;53.482;10.294;2022-08-19T13:07:15;14.95;;;6.47;;
63900;SDS011;50538;53.482;10.294;2022-08-19T13:17:15;15.32;;;6.90;;
63900;SDS011;50538;53.482;10.294;2022-08-19T13:27:16;13.27;;;6.60;;
63900;SDS011;50538;53.482;10.294;2022-08-19T13:37:16;15.23;;;6.85;;
63900;SDS011;50538;53.482;10.294;2022-08-19T13:47:37;13.30;;;6.30;;
63900;SDS011;50538;53.482;10.294;2022-08-19T13:57:44;17.38;;;7.38;;
63900;SDS011;50538;53.482;10.294;2022-08-19T14:07:45;12.15;;;5.68;;
63900;SDS011;50538;53.482;10.294;2022-08-19T14:17:48;12.25;;;5.53;;
63900;SDS011;50538;53.482;10.294;2022-08-19T14:27:49;13.13;;;5.80;;
63900;SDS011;50538;53.482;10.294;2022-08-19T14:37:50;11.73;;;5.15;;
63900;SDS011;50538;53.482;10.294;2022-08-19T14:47:53;9.18;;;4.82;;
63900;SDS011;50538;53.482;10.294;2022-08-19T14:57:54;10.07;;;5.40;;
63900;SDS011;50538;53.482;10.294;2022-08-19T15:07:54;10.75;;;5.95;;
63900;SDS011;50538;53.482;10.294;2022-08-19T15:17:56;9.90;;;5.28;;
63900;SDS011;50538;53.482;10.294;2022-08-19T15:28:02;10.32;;;4.97;;
63900;SDS011;50538;53.482;10.294;2022-08-19T15:38:03;9.95;;;4.82;;
63900;SDS011;50538;53.482;10.294;2022-08-19T15:48:05;9.25;;;5.20;;
63900;SDS011;50538;53.482;10.294;2022-08-19T15:58:07;9.10;;;4.80;;
63900;SDS011;50538;53.482;10.294;2022-08-19T16:08:28;11.55;;;5.50;;
63900;SDS011;50538;53.482;10.294;2022-08-19T16:18:29;11.30;;;5.10;;
63900;SDS011;50538;53.482;10.294;2022-08-19T16:28:29;9.77;;;5.32;;
63900;SDS011;50538;53.482;10.294;2022-08-19T16:38:30;8.75;;;4.72;;
63900;SDS011;50538;53.482;10.294;2022-08-19T16:48:31;10.23;;;5.13;;
63900;SDS011;50538;53.482;10.294;2022-08-19T16:58:32;8.30;;;4.85;;
63900;SDS011;50538;53.482;10.294;2022-08-19T17:08:33;10.87;;;5.43;;
63900;SDS011;50538;53.482;10.294;2022-08-19T17:18:33;9.63;;;5.25;;
63900;SDS011;50538;53.482;10.294;2022-08-19T17:28:33;9.68;;;4.13;;
63900;SDS011;50538;53.482;10.294;2022-08-19T17:38:34;7.82;;;4.35;;
63900;SDS011;50538;53.482;10.294;2022-08-19T17:48:35;7.73;;;4.20;;
63900;SDS011;50538;53.482;10.294;2022-08-19T17:58:38;7.38;;;4.03;;
63900;SDS011;50538;53.482;10.294;2022-08-19T18:08:39;9.30;;;4.20;;
63900;SDS011;50538;53.482;10.294;2022-08-19T18:18:40;6.40;;;4.05;;
63900;SDS011;50538;53.482;10.294;2022-08-19T18:28:41;8.37;;;4.17;;
63900;SDS011;50538;53.482;10.294;2022-08-19T18:38:41;7.82;;;4.57;;
63900;SDS011;50538;53.482;10.294;2022-08-19T18:49:00;5.90;;;3.58;;
63900;SDS011;50538;53.482;10.294;2022-08-19T18:59:04;6.30;;;3.80;;
63900;SDS011;50538;53.482;10.294;2022-08-19T19:09:05;8.18;;;4.18;;
63900;SDS011;50538;53.482;10.294;2022-08-19T19:19:07;5.85;;;3.40;;
63900;SDS011;50538;53.482;10.294;2022-08-19T19:29:07;5.90;;;3.53;;
63900;SDS011;50538;53.482;10.294;2022-08-19T19:39:08;9.90;;;4.05;;
63900;SDS011;50538;53.482;10.294;2022-08-19T19:49:09;7.13;;;3.80;;
63900;SDS011;50538;53.482;10.294;2022-08-19T19:59:10;9.02;;;4.18;;
63900;SDS011;50538;53.482;10.294;2022-08-19T20:09:11;6.73;;;3.47;;
63900;SDS011;50538;53.482;10.294;2022-08-19T20:19:15;7.28;;;4.10;;
63900;SDS011;50538;53.482;10.294;2022-08-19T20:29:18;6.45;;;3.63;;
63900;SDS011;50538;53.482;10.294;2022-08-19T20:39:19;7.30;;;3.85;;
63900;SDS011;50538;53.482;10.294;2022-08-19T20:49:19;8.68;;;3.85;;
63900;SDS011;50538;53.482;10.294;2022-08-19T20:59:20;7.90;;;4.63;;
63900;SDS011;50538;53.482;10.294;2022-08-19T21:09:21;7.28;;;4.30;;
63900;SDS011;50538;53.482;10.294;2022-08-19T21:19:22;6.18;;;3.58;;
63900;SDS011;50538;53.482;10.294;2022-08-19T21:29:22;5.72;;;3.58;;
63900;SDS011;50538;53.482;10.294;2022-08-19T21:39:22;7.03;;;3.80;;
63900;SDS011;50538;53.482;10.294;2022-08-19T21:49:23;7.75;;;4.45;;
63900;SDS011;50538;53.482;10.294;2022-08-19T21:59:23;7.93;;;3.97;;
63900;SDS011;50538;53.482;10.294;2022-08-19T22:09:23;9.20;;;4.47;;
63900;SDS011;50538;53.482;10.294;2022-08-19T22:19:24;7.55;;;4.28;;
63900;SDS011;50538;53.482;10.294;2022-08-19T22:29:24;9.32;;;4.20;;
63900;SDS011;50538;53.482;10.294;2022-08-19T22:39:24;7.63;;;4.10;;
63900;SDS011;50538;53.482;10.294;2022-08-19T22:49:24;7.78;;;3.83;;
63900;SDS011;50538;53.482;10.294;2022-08-19T22:59:25;7.68;;;4.40;;
63900;SDS011;50538;53.482;10.294;2022-08-19T23:09:25;9.70;;;4.55;;
63900;SDS011;50538;53.482;10.294;2022-08-19T23:19:26;9.70;;;4.97;;
63900;SDS011;50538;53.482;10.294;2022-08-19T23:29:26;9.00;;;4.93;;
63900;SDS011;50538;53.482;10.294;2022-08-19T23:39:45;10.20;;;5.75;;
63900;SDS011;50538;53.482;10.294;2022-08-19T23:49:45;12.13;;;5.90;;
63900;SDS011;50538;53.482;10.294;2022-08-19T23:59:47;12.18;;;6.05;;
